Flight Track Log - Related Links

Times and Time Zones

All times are in EDT time to prevent confusion due to time zone crossing. See the ANA57 flight status page for this flight to view local times or setup timezone preferences in your user account.

Time Position Orientation Groundspeed Altitude Reporting Facility
EDT Latitude Longitude Course Direction KTS MPH feet Rate Location/Type
Thu 08:46:00 PM 36.0117 139.8902 11° North  Level Estimated
Thu 08:47:00 PM 36.1266 139.9180 11° North  Level Estimated
Thu 08:48:00 PM 36.2415 139.9459 11° North  Level Estimated
Thu 08:49:00 PM 36.3563 139.9739 11° North  Level Estimated
Thu 08:50:00 PM 36.4711 140.0020 11° North  Level Estimated
Thu 08:51:00 PM 36.5860 140.0301 11° North  Level Estimated
Thu 08:52:00 PM 36.7008 140.0583 11° North  Level Estimated
Thu 08:53:00 PM 36.8156 140.0867 11° North  Level Estimated
Thu 08:54:00 PM 36.9304 140.1151 11° North  Level Estimated
Thu 08:55:00 PM 37.0452 140.1436 11° North  Level Estimated
Thu 08:56:00 PM 37.1600 140.1721 11° North  Level Estimated
Thu 08:57:00 PM 37.2748 140.2008 11° North  Level Estimated
Thu 08:58:00 PM 37.3896 140.2296 11° North  Level Estimated
Thu 08:59:00 PM 37.5044 140.2584 11° North  Level Estimated
Thu 09:00:00 PM 37.6191 140.2873 11° North  Level Estimated
Thu 09:01:00 PM 37.7339 140.3163 11° North  Level Estimated
Thu 09:02:00 PM 37.8487 140.3454 11° North  Level Estimated
Thu 09:03:00 PM 37.9634 140.3746 11° North  Level Estimated
Thu 09:04:00 PM 38.0782 140.4039 11° North  Level Estimated
Thu 09:05:00 PM 38.1929 140.4333 11° North  Level Estimated
Thu 09:06:00 PM 38.3076 140.4628 11° North  Level Estimated
Thu 09:07:00 PM 38.4223 140.4924 11° North  Level Estimated
Thu 09:08:00 PM 38.5370 140.5220 11° North  Level Estimated
Thu 09:09:00 PM 38.6517 140.5518 11° North  Level Estimated
Thu 09:10:00 PM 38.7664 140.5816 11° North  Level Estimated
Thu 09:11:00 PM 38.8811 140.6116 11° North  Level Estimated
Thu 09:12:00 PM 38.9958 140.6416 12° North  Level Estimated
Thu 09:13:00 PM 39.1105 140.6718 12° North  Level Estimated
Thu 09:14:00 PM 39.2252 140.7020 12° North  Level Estimated
Thu 09:15:00 PM 39.3398 140.7323 12° North  Level Estimated
Thu 09:16:00 PM 39.4545 140.7628 12° North  Level Estimated
Thu 09:17:00 PM 39.5691 140.7933 12° North  Level Estimated
Thu 09:18:00 PM 39.6837 140.8240 12° North  Level Estimated
Thu 09:19:00 PM 39.7984 140.8547 12° North  Level Estimated
Thu 09:20:00 PM 39.9130 140.8856 12° North  Level Estimated
Thu 09:21:00 PM 40.0276 140.9165 12° North  Level Estimated
Thu 09:22:00 PM 40.1422 140.9476 12° North  Level Estimated
Thu 09:23:00 PM 40.2568 140.9787 12° North  Level Estimated
Thu 09:24:00 PM 40.3714 141.0100 12° North  Level Estimated
Thu 09:25:00 PM 40.4859 141.0414 12° North  Level Estimated
Thu 09:26:00 PM 40.6005 141.0728 12° North  Level Estimated
Thu 09:27:00 PM 40.7151 141.1044 12° North  Level Estimated
Thu 09:28:00 PM 40.8296 141.1361 12° North  Level Estimated
Thu 09:29:00 PM 40.9442 141.1679 12° North  Level Estimated
Thu 09:30:00 PM 41.0587 141.1998 12° North  Level Estimated
Thu 09:31:00 PM 41.1732 141.2319 12° North  Level Estimated
Thu 09:32:00 PM 41.2877 141.2640 12° North  Level Estimated
Thu 09:33:00 PM 41.4022 141.2962 12° North  Level Estimated
Thu 09:34:00 PM 41.5167 141.3286 12° North  Level Estimated
Thu 09:35:00 PM 41.6312 141.3611 12° North  Level Estimated
Thu 09:36:00 PM 41.7457 141.3937 12° North  Level Estimated
Thu 09:37:00 PM 41.8602 141.4264 12° North  Level Estimated
Thu 09:38:00 PM 41.9746 141.4592 12° North  Level Estimated
Thu 09:39:00 PM 42.0891 141.4922 12° North  Level Estimated
Thu 09:40:00 PM 42.2035 141.5253 12° North  Level Estimated
Thu 09:41:00 PM 42.3180 141.5584 12° North  Level Estimated
Thu 09:42:00 PM 42.4324 141.5918 12° North  Level Estimated
Thu 09:43:00 PM 42.5468 141.6252 12° North  Level Estimated
Thu 09:44:00 PM 42.6612 141.6587 12° North  Level Estimated
Thu 09:45:00 PM 42.7752 141.6923 12° North  Level Estimated
Thu 09:46:00 PM 42.7752 141.6923 90° East  Level Estimated
Thu 09:47:00 PM 42.7752 141.6923 90° East  Level Estimated
Thu 09:48:00 PM 42.7752 141.6923 90° East  Level Estimated
Thu 09:49:00 PM 42.7752 141.6923 90° East  Level Estimated
Thu 09:50:00 PM 42.7752 141.6923 90° East  Level Estimated
Thu 09:51:00 PM 42.7752 141.6923 90° East  Level Estimated
Thu 09:52:00 PM 42.7752 141.6923 90° East  Level Estimated
Thu 09:53:00 PM 42.7752 141.6923 90° East  Level Estimated
Thu 09:54:00 PM 42.7752 141.6923 90° East  Level Estimated
Thu 09:55:00 PM 42.7752 141.6923 90° East  Level Estimated
Thu 09:56:00 PM 42.7752 141.6923 90° East  Level Estimated
Thu 09:57:00 PM 42.7752 141.6923 90° East  Level Estimated
Thu 09:58:00 PM 42.7752 141.6923 90° East  Level Estimated
Thu 09:59:00 PM 42.7752 141.6923 90° East  Level Estimated
Thu 10:00:00 PM 42.7752 141.6923 90° East  Level Estimated
Thu 10:01:00 PM 42.7752 141.6923 90° East  Level Estimated

Login

Don't have an account? Register now (free) for customized features, flight alerts, and more!